Time;durP1;ratioP1;P1;durP2;ratioP2;P2;SDS_P1;SDS_P2;PMS_P1;PMS_P2;Temp;Humidity;BMP_temperature;BMP_pressure;BME280_temperature;BME280_humidity;BME280_pressure;Samples;Min_cycle;Max_cycle;Signal;HPM_P1;HPM_P2
2023/01/07 00:01:35;;;;;;;;;;;11.40;99.90;;;;;;5031806;28;19974;-63
2023/01/07 00:04:03;;;;;;;;;;;11.40;99.90;;;;;;5027446;28;21476;-63
2023/01/07 00:06:32;;;;;;;;;;;11.30;99.90;;;;;;5030822;28;20280;-63
2023/01/07 00:08:58;;;;;;;;;;;11.40;99.90;;;;;;5031282;28;19921;-62
2023/01/07 00:11:28;;;;;;;;;;;11.30;99.90;;;;;;5031596;28;20000;-63
2023/01/07 00:13:54;;;;;;;;;;;11.30;99.90;;;;;;5026658;28;19917;-62
2023/01/07 00:16:21;;;;;;;;;;;11.20;99.90;;;;;;5031687;28;20311;-61
2023/01/07 00:18:47;;;;;;;;;;;11.20;99.90;;;;;;5029627;28;19968;-63
2023/01/07 00:21:14;;;;;;;;;;;11.20;99.90;;;;;;5028698;28;19960;-62
2023/01/07 00:23:41;;;;;;;;;;;11.00;99.90;;;;;;5031656;28;19967;-62
2023/01/07 00:26:07;;;;;;;;;;;11.00;99.90;;;;;;5028641;28;20434;-62
2023/01/07 00:28:34;;;;;;;;;;;11.00;99.90;;;;;;5023954;28;19965;-64
2023/01/07 00:31:00;;;;;;;;;;;11.00;99.90;;;;;;5026454;28;19913;-63
2023/01/07 00:33:27;;;;;;;;;;;11.00;99.90;;;;;;5026364;28;19979;-63
2023/01/07 00:35:59;;;;;;;;;;;11.00;99.90;;;;;;5026539;28;20291;-63
2023/01/07 00:38:25;;;;;;;;;;;10.90;99.90;;;;;;5030085;28;19927;-62
2023/01/07 00:40:50;;;;;;;;;;;10.80;99.90;;;;;;5027305;28;20443;-63
2023/01/07 00:43:16;;;;;;;;;;;10.80;99.90;;;;;;5031558;28;20003;-63
2023/01/07 00:45:42;;;;;;;;;;;10.80;99.90;;;;;;5026806;28;19944;-63
2023/01/07 00:48:08;;;;;;;;;;;10.80;99.90;;;;;;5024651;28;19913;-63
2023/01/07 00:50:34;;;;;;;;;;;10.70;99.90;;;;;;5028459;28;19921;-63
2023/01/07 00:53:00;;;;;;;;;;;10.70;99.90;;;;;;5027002;28;19924;-59
2023/01/07 00:55:26;;;;;;;;;;;10.80;99.90;;;;;;5027861;28;19913;-63
2023/01/07 00:57:52;;;;;;;;;;;10.70;99.90;;;;;;5029454;28;19913;-63
2023/01/07 01:00:18;;;;;;;;;;;10.70;99.90;;;;;;5027069;28;19926;-63
2023/01/07 01:02:44;;;;;;;;;;;10.70;99.90;;;;;;5029382;28;20031;-63
2023/01/07 01:05:10;;;;;;;;;;;10.70;99.90;;;;;;5028239;28;20000;-62
2023/01/07 01:07:36;;;;;;;;;;;10.70;99.90;;;;;;5029752;28;19920;-63
2023/01/07 01:10:02;;;;;;;;;;;10.80;99.90;;;;;;5029251;28;20290;-63
2023/01/07 01:12:28;;;;;;;;;;;10.80;99.90;;;;;;5026565;28;20007;-63
2023/01/07 01:14:53;;;;;;;;;;;10.70;99.90;;;;;;5021945;28;19956;-63
2023/01/07 01:17:19;;;;;;;;;;;10.80;99.90;;;;;;5027949;28;20302;-63
2023/01/07 01:19:45;;;;;;;;;;;10.70;99.90;;;;;;5030116;28;19967;-63
2023/01/07 01:22:10;;;;;;;;;;;10.70;99.90;;;;;;5028335;28;19920;-63
2023/01/07 01:24:35;;;;;;;;;;;10.70;99.90;;;;;;5023696;28;20406;-63
2023/01/07 01:27:01;;;;;;;;;;;10.70;99.90;;;;;;5025038;28;20350;-64
2023/01/07 01:29:26;;;;;;;;;;;10.70;99.90;;;;;;5020673;28;19919;-63
2023/01/07 01:31:52;;;;;;;;;;;10.70;99.90;;;;;;5026030;28;19964;-64
2023/01/07 01:34:17;;;;;;;;;;;10.60;99.90;;;;;;5026263;28;20375;-62
2023/01/07 01:36:43;;;;;;;;;;;10.60;99.90;;;;;;5027386;28;19913;-63
2023/01/07 01:39:08;;;;;;;;;;;10.60;99.90;;;;;;5030194;28;20430;-63
2023/01/07 01:41:34;;;;;;;;;;;10.50;99.90;;;;;;5028954;28;19917;-63
2023/01/07 01:43:59;;;;;;;;;;;10.40;99.90;;;;;;5031662;28;19958;-63
2023/01/07 01:46:39;;;;;;;;;;;10.40;99.90;;;;;;5021401;28;19914;-63
2023/01/07 01:49:23;;;;;;;;;;;10.30;99.90;;;;;;5027028;28;19917;-63
2023/01/07 01:51:54;;;;;;;;;;;10.20;99.90;;;;;;5021325;28;20397;-64
2023/01/07 01:54:20;;;;;;;;;;;10.30;99.90;;;;;;5026827;28;20410;-63
2023/01/07 01:56:48;;;;;;;;;;;10.30;99.90;;;;;;5021129;28;19922;-64
2023/01/07 01:59:17;;;;;;;;;;;10.20;99.90;;;;;;5029439;28;19913;-63
2023/01/07 02:01:42;;;;;;;;;;;10.00;99.90;;;;;;5024910;28;20016;-63
2023/01/07 02:04:10;;;;;;;;;;;10.00;99.90;;;;;;5027003;28;20007;-63
2023/01/07 02:06:38;;;;;;;;;;;9.90;99.90;;;;;;5023972;28;19953;-63
2023/01/07 02:09:03;;;;;;;;;;;9.80;99.90;;;;;;5029208;28;19917;-63
2023/01/07 02:11:32;;;;;;;;;;;9.80;99.90;;;;;;5028345;28;19924;-63
2023/01/07 02:14:00;;;;;;;;;;;9.70;99.90;;;;;;5029013;28;20011;-63
2023/01/07 02:16:26;;;;;;;;;;;9.40;99.90;;;;;;5027926;28;19917;-62
2023/01/07 02:18:51;;;;;;;;;;;9.20;99.90;;;;;;5030105;28;20038;-60
2023/01/07 02:21:32;;;;;;;;;;;9.00;99.90;;;;;;5024007;28;19920;-63
2023/01/07 02:23:57;;;;;;;;;;;9.00;99.90;;;;;;5027067;28;19909;-63
2023/01/07 02:26:33;;;;;;;;;;;9.00;99.90;;;;;;5027511;28;20334;-63
2023/01/07 02:29:01;;;;;;;;;;;8.90;99.90;;;;;;5031423;28;19916;-63
2023/01/07 02:31:35;;;;;;;;;;;9.00;99.90;;;;;;5029816;28;19952;-63
2023/01/07 02:34:14;;;;;;;;;;;8.90;99.90;;;;;;5031461;28;20345;-61
2023/01/07 02:36:43;;;;;;;;;;;8.80;99.90;;;;;;5029056;28;20473;-62
2023/01/07 02:39:14;;;;;;;;;;;8.80;99.90;;;;;;5025067;28;19909;-63
2023/01/07 02:41:50;;;;;;;;;;;8.80;99.90;;;;;;5025895;28;20268;-62
2023/01/07 02:44:19;;;;;;;;;;;8.70;99.90;;;;;;5023097;28;19910;-62
2023/01/07 02:46:59;;;;;;;;;;;8.70;99.90;;;;;;5024383;28;20375;-62
2023/01/07 02:49:25;;;;;;;;;;;8.70;99.90;;;;;;5026008;28;20294;-62
2023/01/07 02:51:50;;;;;;;;;;;8.70;99.90;;;;;;5028548;28;19913;-63
2023/01/07 02:54:19;;;;;;;;;;;8.70;99.90;;;;;;5026611;28;20345;-63
2023/01/07 02:57:02;;;;;;;;;;;8.80;99.90;;;;;;5028473;28;19909;-63
2023/01/07 02:59:35;;;;;;;;;;;8.90;99.90;;;;;;5030583;28;20322;-62
2023/01/07 03:02:10;;;;;;;;;;;8.90;99.90;;;;;;5026280;28;19913;-63
2023/01/07 03:04:54;;;;;;;;;;;9.00;99.90;;;;;;5029861;28;19956;-63
2023/01/07 03:07:36;;;;;;;;;;;9.00;99.90;;;;;;5024458;28;19920;-62
2023/01/07 03:10:24;;;;;;;;;;;9.00;99.90;;;;;;5020745;28;20004;-63
2023/01/07 03:13:01;;;;;;;;;;;9.10;99.90;;;;;;5028638;28;19956;-62
2023/01/07 03:15:29;;;;;;;;;;;9.10;99.90;;;;;;5029452;28;20074;-63
2023/01/07 03:18:01;;;;;;;;;;;9.20;99.90;;;;;;5030745;28;20306;-63
2023/01/07 03:20:28;;;;;;;;;;;9.20;99.90;;;;;;5028669;28;20333;-63
2023/01/07 03:22:54;;;;;;;;;;;9.30;99.90;;;;;;5030542;28;20399;-63
2023/01/07 03:25:21;;;;;;;;;;;9.30;99.90;;;;;;5031765;28;19913;-63
2023/01/07 03:27:47;;;;;;;;;;;9.30;99.90;;;;;;5029484;28;20502;-63
2023/01/07 03:30:14;;;;;;;;;;;9.30;99.90;;;;;;5030402;28;20298;-63
2023/01/07 03:32:56;;;;;;;;;;;9.40;99.90;;;;;;5033227;28;19960;-63
2023/01/07 03:35:22;;;;;;;;;;;9.30;99.90;;;;;;5032903;28;19921;-63
2023/01/07 03:37:49;;;;;;;;;;;9.40;99.90;;;;;;5030422;28;19917;-63
2023/01/07 03:40:15;;;;;;;;;;;9.30;99.90;;;;;;5029677;28;19913;-63
2023/01/07 03:42:41;;;;;;;;;;;9.30;99.90;;;;;;5029138;28;19928;-63
2023/01/07 03:45:10;;;;;;;;;;;9.30;99.90;;;;;;5024542;28;19921;-63
2023/01/07 03:47:36;;;;;;;;;;;9.30;99.90;;;;;;5030587;28;20327;-63
2023/01/07 03:50:02;;;;;;;;;;;9.20;99.90;;;;;;5029043;28;19956;-63
2023/01/07 03:52:27;;;;;;;;;;;9.20;99.90;;;;;;5032452;28;19963;-62
2023/01/07 03:54:53;;;;;;;;;;;9.30;99.90;;;;;;5028080;28;20260;-63
2023/01/07 03:57:18;;;;;;;;;;;9.40;99.90;;;;;;5027649;28;20007;-63
2023/01/07 03:59:43;;;;;;;;;;;9.40;99.90;;;;;;5026109;28;19966;-62
2023/01/07 04:02:09;;;;;;;;;;;9.60;99.90;;;;;;5032584;28;19920;-63
2023/01/07 04:04:34;;;;;;;;;;;9.60;99.90;;;;;;5031795;28;19928;-66
2023/01/07 04:07:00;;;;;;;;;;;9.70;99.90;;;;;;5032144;28;19927;-62
2023/01/07 04:09:25;;;;;;;;;;;9.80;99.90;;;;;;5033765;28;20296;-62
2023/01/07 04:11:51;;;;;;;;;;;9.80;99.90;;;;;;5031926;28;20311;-62
2023/01/07 04:14:16;;;;;;;;;;;9.90;99.90;;;;;;5033813;28;19917;-63
2023/01/07 04:16:41;;;;;;;;;;;9.90;99.90;;;;;;5050277;22;19908;-63
2023/01/07 04:19:07;;;;;;;;;;;10.00;99.90;;;;;;5054520;28;19982;-63
2023/01/07 04:21:32;;;;;;;;;;;10.00;99.90;;;;;;5053298;28;19912;-63
2023/01/07 04:23:58;;;;;;;;;;;10.10;99.90;;;;;;5052481;28;20340;-63
2023/01/07 04:26:23;;;;;;;;;;;10.10;99.90;;;;;;5051962;28;19933;-64
2023/01/07 04:28:49;;;;;;;;;;;10.20;99.90;;;;;;5064037;28;19909;-64
2023/01/07 04:31:14;;;;;;;;;;;10.40;99.90;;;;;;5070184;28;20003;-63
2023/01/07 04:33:40;;;;;;;;;;;10.50;99.90;;;;;;5075005;28;19990;-63
2023/01/07 04:36:05;;;;;;;;;;;10.60;99.90;;;;;;5071243;28;19912;-63
2023/01/07 04:38:31;;;;;;;;;;;10.70;99.90;;;;;;5068259;28;19920;-62
2023/01/07 04:40:56;;;;;;;;;;;10.80;99.90;;;;;;5070139;28;19913;-62
2023/01/07 04:43:21;;;;;;;;;;;10.90;99.90;;;;;;5071433;28;19912;-63
2023/01/07 04:45:47;;;;;;;;;;;11.00;99.90;;;;;;5075211;28;19916;-65
2023/01/07 04:48:12;;;;;;;;;;;11.00;99.90;;;;;;5070420;28;19916;-64
2023/01/07 04:50:38;;;;;;;;;;;11.10;99.90;;;;;;5073602;28;19916;-64
2023/01/07 04:53:03;;;;;;;;;;;11.10;99.90;;;;;;5066564;28;19982;-64
2023/01/07 04:55:29;;;;;;;;;;;11.20;99.90;;;;;;5070086;28;19913;-63
2023/01/07 04:57:54;;;;;;;;;;;11.20;99.90;;;;;;5063742;28;20271;-63
2023/01/07 05:00:20;;;;;;;;;;;11.10;99.90;;;;;;5069544;28;19935;-63
2023/01/07 05:02:45;;;;;;;;;;;11.20;99.90;;;;;;5067166;28;19920;-63
2023/01/07 05:05:11;;;;;;;;;;;11.20;99.90;;;;;;5068968;28;20373;-63
2023/01/07 05:07:36;;;;;;;;;;;11.20;99.90;;;;;;5076328;28;20397;-63
2023/01/07 05:10:02;;;;;;;;;;;11.20;99.90;;;;;;5063589;28;19973;-63
2023/01/07 05:12:27;;;;;;;;;;;11.20;99.90;;;;;;5071892;28;19912;-61
2023/01/07 05:14:53;;;;;;;;;;;11.20;99.90;;;;;;5071373;28;19924;-63
2023/01/07 05:17:18;;;;;;;;;;;11.20;99.90;;;;;;5073781;28;19943;-63
2023/01/07 05:19:43;;;;;;;;;;;11.10;99.90;;;;;;5073997;28;20373;-62
2023/01/07 05:22:09;;;;;;;;;;;11.10;99.90;;;;;;5069851;28;20349;-63
2023/01/07 05:24:35;;;;;;;;;;;11.10;99.90;;;;;;5079037;28;20359;-62
2023/01/07 05:27:00;;;;;;;;;;;11.10;99.90;;;;;;5073828;28;19913;-62
2023/01/07 05:29:26;;;;;;;;;;;11.10;99.90;;;;;;5074685;28;19912;-63
2023/01/07 05:31:51;;;;;;;;;;;11.00;99.90;;;;;;5070452;28;19936;-63
2023/01/07 05:34:16;;;;;;;;;;;11.10;99.90;;;;;;5074563;28;20278;-62
2023/01/07 05:36:42;;;;;;;;;;;11.10;99.90;;;;;;5070775;28;20424;-63
2023/01/07 05:39:08;;;;;;;;;;;11.00;99.90;;;;;;5072231;28;20043;-62
2023/01/07 05:41:33;;;;;;;;;;;11.00;99.90;;;;;;5068914;28;20412;-62
2023/01/07 05:43:59;;;;;;;;;;;11.00;99.90;;;;;;5075255;28;19977;-63
2023/01/07 05:46:24;;;;;;;;;;;10.90;99.90;;;;;;5065462;28;20298;-63
2023/01/07 05:48:50;;;;;;;;;;;10.90;99.90;;;;;;5067464;28;19950;-62
2023/01/07 05:51:15;;;;;;;;;;;10.90;99.90;;;;;;5059229;28;19916;-63
2023/01/07 05:53:41;;;;;;;;;;;10.90;99.90;;;;;;5068309;28;19923;-63
2023/01/07 05:56:06;;;;;;;;;;;10.90;99.90;;;;;;5067076;28;20058;-61
2023/01/07 05:58:32;;;;;;;;;;;10.90;99.90;;;;;;5071324;28;19912;-63
2023/01/07 06:00:57;;;;;;;;;;;10.90;99.90;;;;;;5068721;28;19913;-62
2023/01/07 06:03:23;;;;;;;;;;;11.00;99.90;;;;;;5071651;28;20439;-62
2023/01/07 06:05:48;;;;;;;;;;;11.00;99.90;;;;;;5069005;28;19927;-62
2023/01/07 06:08:14;;;;;;;;;;;11.00;99.90;;;;;;5068409;28;19913;-63
2023/01/07 06:10:39;;;;;;;;;;;11.00;99.90;;;;;;5073172;28;19913;-62
2023/01/07 06:13:05;;;;;;;;;;;10.90;99.90;;;;;;5070718;28;19962;-62
2023/01/07 06:15:30;;;;;;;;;;;10.90;99.90;;;;;;5075423;28;19919;-65
2023/01/07 06:17:56;;;;;;;;;;;10.90;99.90;;;;;;5069638;28;19989;-64
2023/01/07 06:20:22;;;;;;;;;;;10.90;99.90;;;;;;5067887;28;19912;-64
2023/01/07 06:22:47;;;;;;;;;;;10.80;99.90;;;;;;5068110;28;20440;-64
2023/01/07 06:25:12;;;;;;;;;;;10.80;99.90;;;;;;5073206;28;19916;-64
2023/01/07 06:27:41;;;;;;;;;;;10.80;99.90;;;;;;5072088;28;19920;-64
2023/01/07 06:30:07;;;;;;;;;;;10.80;99.90;;;;;;5069375;28;19913;-62
2023/01/07 06:32:40;;;;;;;;;;;10.80;99.90;;;;;;5066721;28;19912;-64
2023/01/07 06:35:06;;;;;;;;;;;10.80;99.90;;;;;;5068433;28;19916;-64
2023/01/07 06:37:32;;;;;;;;;;;10.80;99.90;;;;;;5077190;28;19987;-64
2023/01/07 06:39:58;;;;;;;;;;;10.70;99.90;;;;;;5072740;28;20076;-64
2023/01/07 06:42:23;;;;;;;;;;;10.70;99.90;;;;;;5076396;28;19912;-64
2023/01/07 06:44:49;;;;;;;;;;;10.70;99.90;;;;;;5070233;28;19923;-64
2023/01/07 06:47:14;;;;;;;;;;;10.70;99.90;;;;;;5089399;28;20374;-63
2023/01/07 06:49:39;;;;;;;;;;;10.70;99.90;;;;;;5077328;28;20378;-63
2023/01/07 06:52:05;;;;;;;;;;;10.70;99.90;;;;;;5072893;28;20478;-65
2023/01/07 06:54:30;;;;;;;;;;;10.70;99.90;;;;;;5068287;28;19917;-64
2023/01/07 06:56:56;;;;;;;;;;;10.80;99.90;;;;;;5075365;28;19938;-64
2023/01/07 06:59:21;;;;;;;;;;;10.80;99.90;;;;;;5075291;28;19912;-64
2023/01/07 07:01:47;;;;;;;;;;;10.70;99.90;;;;;;5079066;28;19916;-64
2023/01/07 07:04:12;;;;;;;;;;;10.70;99.90;;;;;;5077153;28;20003;-64
2023/01/07 07:06:38;;;;;;;;;;;10.80;99.90;;;;;;5074976;28;20015;-64
2023/01/07 07:09:03;;;;;;;;;;;10.70;99.90;;;;;;5069445;28;19943;-64
2023/01/07 07:11:29;;;;;;;;;;;10.70;99.90;;;;;;5079856;28;20482;-64
2023/01/07 07:13:54;;;;;;;;;;;10.70;99.90;;;;;;5075052;28;19917;-63
2023/01/07 07:16:21;;;;;;;;;;;10.70;99.90;;;;;;5079447;28;19912;-63
2023/01/07 07:18:46;;;;;;;;;;;10.70;99.90;;;;;;5075788;28;19964;-64
2023/01/07 07:21:12;;;;;;;;;;;10.60;99.90;;;;;;5071176;28;19959;-63
2023/01/07 07:23:37;;;;;;;;;;;10.60;99.90;;;;;;5067223;28;19928;-64
2023/01/07 07:26:03;;;;;;;;;;;10.70;99.90;;;;;;5073460;28;19912;-64
2023/01/07 07:28:28;;;;;;;;;;;10.70;99.90;;;;;;5073025;28;19916;-63
2023/01/07 07:30:54;;;;;;;;;;;10.70;99.90;;;;;;5069350;28;20042;-64
2023/01/07 07:33:19;;;;;;;;;;;10.70;99.90;;;;;;5074993;28;19920;-65
2023/01/07 07:35:45;;;;;;;;;;;10.70;99.90;;;;;;5079519;28;20366;-64
2023/01/07 07:38:10;;;;;;;;;;;10.70;99.90;;;;;;5077579;28;19942;-64
2023/01/07 07:40:36;;;;;;;;;;;10.70;99.90;;;;;;5069222;28;19939;-64
2023/01/07 07:43:01;;;;;;;;;;;10.70;99.90;;;;;;5067863;28;19921;-63
2023/01/07 07:45:27;;;;;;;;;;;10.70;99.90;;;;;;5070554;28;19912;-64
2023/01/07 07:47:52;;;;;;;;;;;10.70;99.90;;;;;;5069167;28;19919;-63
2023/01/07 07:50:18;;;;;;;;;;;10.70;99.90;;;;;;5069294;28;19916;-63
2023/01/07 07:52:44;;;;;;;;;;;10.70;99.90;;;;;;5067879;28;19935;-63
2023/01/07 07:55:10;;;;;;;;;;;10.80;99.90;;;;;;5069316;28;19924;-62
2023/01/07 07:57:35;;;;;;;;;;;10.80;99.90;;;;;;5070748;28;19912;-62
2023/01/07 08:00:01;;;;;;;;;;;10.80;99.90;;;;;;5063271;28;19952;-64
2023/01/07 08:02:27;;;;;;;;;;;10.80;99.90;;;;;;5064632;28;19917;-64
2023/01/07 08:04:52;;;;;;;;;;;10.70;99.90;;;;;;5064099;28;19921;-63
2023/01/07 08:07:17;;;;;;;;;;;10.80;99.90;;;;;;5069353;28;19920;-63
2023/01/07 08:09:43;;;;;;;;;;;10.80;99.90;;;;;;5065841;28;19943;-63
2023/01/07 08:12:08;;;;;;;;;;;10.80;99.90;;;;;;5069000;28;19917;-63
2023/01/07 08:14:34;;;;;;;;;;;10.80;99.90;;;;;;5067685;28;20022;-63
2023/01/07 08:16:59;;;;;;;;;;;10.70;99.90;;;;;;5079421;28;19957;-64
2023/01/07 08:19:25;;;;;;;;;;;10.70;99.90;;;;;;5082366;28;20456;-64
2023/01/07 08:21:50;;;;;;;;;;;10.70;99.90;;;;;;5066150;28;20382;-63
2023/01/07 08:24:16;;;;;;;;;;;10.70;99.90;;;;;;5071552;28;21713;-64
2023/01/07 08:26:41;;;;;;;;;;;10.70;99.90;;;;;;5069511;28;19923;-64
2023/01/07 08:29:07;;;;;;;;;;;10.70;99.90;;;;;;5072648;28;19916;-63
2023/01/07 08:31:33;;;;;;;;;;;10.70;99.90;;;;;;5068020;28;19912;-63
2023/01/07 08:33:58;;;;;;;;;;;10.70;99.90;;;;;;5072859;28;19943;-65
2023/01/07 08:36:24;;;;;;;;;;;10.70;99.90;;;;;;5072885;28;19998;-64
2023/01/07 08:38:53;;;;;;;;;;;10.70;99.90;;;;;;5069053;28;19912;-63
2023/01/07 08:41:22;;;;;;;;;;;10.80;99.90;;;;;;5066923;28;19913;-64
2023/01/07 08:43:47;;;;;;;;;;;10.80;99.90;;;;;;5068701;28;19959;-63
2023/01/07 08:46:13;;;;;;;;;;;10.80;99.90;;;;;;5072446;28;20366;-63
2023/01/07 08:48:39;;;;;;;;;;;10.80;99.90;;;;;;5072365;28;19921;-62
2023/01/07 08:51:04;;;;;;;;;;;10.80;99.90;;;;;;5064600;28;19971;-64
2023/01/07 08:53:30;;;;;;;;;;;10.80;99.90;;;;;;5073827;28;19923;-63
2023/01/07 08:55:55;;;;;;;;;;;10.80;99.90;;;;;;5079873;28;20016;-64
2023/01/07 08:58:20;;;;;;;;;;;10.80;99.90;;;;;;5075858;28;19913;-63
2023/01/07 09:00:46;;;;;;;;;;;10.90;99.90;;;;;;5069070;28;19912;-63
2023/01/07 09:03:11;;;;;;;;;;;11.00;99.90;;;;;;5082638;28;19912;-63
2023/01/07 09:05:37;;;;;;;;;;;11.00;99.90;;;;;;5075256;28;19912;-64
2023/01/07 09:08:02;;;;;;;;;;;11.10;99.90;;;;;;5068717;28;19923;-64
2023/01/07 09:10:28;;;;;;;;;;;11.10;99.90;;;;;;5070649;28;20487;-64
2023/01/07 09:12:53;;;;;;;;;;;11.20;99.90;;;;;;5070419;28;19921;-64
2023/01/07 09:15:19;;;;;;;;;;;11.20;99.90;;;;;;5068272;28;19917;-62
2023/01/07 09:17:44;;;;;;;;;;;11.30;99.90;;;;;;5066936;28;20441;-62
2023/01/07 09:20:10;;;;;;;;;;;11.30;99.90;;;;;;5070794;28;19920;-62
2023/01/07 09:22:36;;;;;;;;;;;11.40;99.90;;;;;;5069069;28;20413;-61
2023/01/07 09:25:02;;;;;;;;;;;11.40;99.90;;;;;;5072481;28;19912;-62
2023/01/07 09:27:27;;;;;;;;;;;11.40;99.90;;;;;;5071023;28;19920;-61
2023/01/07 09:29:53;;;;;;;;;;;11.40;99.90;;;;;;5063993;28;19969;-61
2023/01/07 09:32:19;;;;;;;;;;;11.40;99.90;;;;;;5065069;28;19916;-59
2023/01/07 09:34:44;;;;;;;;;;;11.40;99.90;;;;;;5062541;28;19967;-61
2023/01/07 09:37:10;;;;;;;;;;;11.40;99.90;;;;;;5064817;28;19912;-60
2023/01/07 09:39:35;;;;;;;;;;;11.40;99.90;;;;;;5065148;28;19928;-62
2023/01/07 09:42:11;;;;;;;;;;;11.40;99.90;;;;;;5063505;28;20289;-62
2023/01/07 09:44:44;;;;;;;;;;;11.40;99.90;;;;;;5066033;28;19916;-61
2023/01/07 09:47:11;;;;;;;;;;;11.40;99.90;;;;;;5067215;28;19973;-61
2023/01/07 09:49:37;;;;;;;;;;;11.40;99.90;;;;;;5064247;28;19999;-62
2023/01/07 09:52:11;;;;;;;;;;;11.40;99.90;;;;;;5065514;28;20023;-61
2023/01/07 09:54:38;;;;;;;;;;;11.40;99.90;;;;;;5059535;28;19924;-62
2023/01/07 09:57:04;;;;;;;;;;;11.50;99.90;;;;;;5066918;28;19920;-61
2023/01/07 09:59:29;;;;;;;;;;;11.50;99.90;;;;;;5065286;28;19936;-61
2023/01/07 10:02:21;;;;;;;;;;;11.60;99.90;;;;;;5066138;28;20366;-60
2023/01/07 10:04:53;;;;;;;;;;;11.60;99.90;;;;;;5059547;28;19923;-62
2023/01/07 10:07:21;;;;;;;;;;;11.50;99.90;;;;;;5064478;28;20025;-62
2023/01/07 10:09:52;;;;;;;;;;;11.60;99.90;;;;;;5065934;28;19919;-61
2023/01/07 10:12:35;;;;;;;;;;;11.60;99.90;;;;;;5063644;28;19917;-63
2023/01/07 10:15:12;;;;;;;;;;;11.60;99.90;;;;;;5067843;28;20018;-61
2023/01/07 10:17:53;;;;;;;;;;;11.70;99.90;;;;;;5078171;22;20015;-64
2023/01/07 10:20:51;;;;;;;;;;;11.80;99.90;;;;;;5043733;28;20000;-63
2023/01/07 10:23:22;;;;;;;;;;;11.80;99.90;;;;;;5038147;28;19917;-64
2023/01/07 10:25:49;;;;;;;;;;;11.80;99.90;;;;;;5046795;28;20270;-63
2023/01/07 10:28:19;;;;;;;;;;;11.80;99.90;;;;;;5038099;28;20267;-63
2023/01/07 10:30:46;;;;;;;;;;;11.80;99.90;;;;;;5023388;28;21073;-63
2023/01/07 10:33:12;;;;;;;;;;;11.80;99.90;;;;;;5021378;28;19921;-63
2023/01/07 10:35:38;;;;;;;;;;;11.90;99.90;;;;;;5027864;28;19920;-63
2023/01/07 10:38:04;;;;;;;;;;;11.90;99.90;;;;;;5018396;28;20298;-63
2023/01/07 10:40:37;;;;;;;;;;;11.90;99.90;;;;;;5019588;28;19913;-63
2023/01/07 10:43:21;;;;;;;;;;;11.90;99.90;;;;;;5032719;28;20011;-63
2023/01/07 10:45:46;;;;;;;;;;;11.80;99.90;;;;;;5025767;28;19925;-63
2023/01/07 10:48:24;;;;;;;;;;;11.80;99.90;;;;;;5027660;28;20008;-62
2023/01/07 10:50:49;;;;;;;;;;;11.80;99.90;;;;;;5024447;28;19979;-63
2023/01/07 10:53:36;;;;;;;;;;;11.80;99.90;;;;;;5021053;28;20404;-63
2023/01/07 10:56:12;;;;;;;;;;;11.70;99.90;;;;;;5021238;28;19968;-62
2023/01/07 10:58:41;;;;;;;;;;;11.70;99.90;;;;;;5026637;28;19952;-62
2023/01/07 11:01:07;;;;;;;;;;;11.70;99.90;;;;;;5027406;28;19921;-63
2023/01/07 11:03:33;;;;;;;;;;;11.60;99.90;;;;;;5026295;28;19924;-63
2023/01/07 11:06:02;;;;;;;;;;;11.60;99.90;;;;;;5024251;28;20130;-63
2023/01/07 11:08:28;;;;;;;;;;;11.60;99.90;;;;;;5020793;28;19913;-62
2023/01/07 11:10:54;;;;;;;;;;;11.60;99.90;;;;;;5027530;28;20046;-63
2023/01/07 11:13:25;;;;;;;;;;;11.60;99.90;;;;;;5023174;28;19921;-63
2023/01/07 11:15:55;;;;;;;;;;;11.60;99.90;;;;;;5024665;28;20635;-62
2023/01/07 11:18:29;;;;;;;;;;;11.60;99.90;;;;;;5030333;28;19929;-63
2023/01/07 11:20:56;;;;;;;;;;;11.60;99.90;;;;;;5025987;28;19979;-63
2023/01/07 11:23:28;;;;;;;;;;;11.60;99.90;;;;;;5017738;28;20132;-62
2023/01/07 11:26:03;;;;;;;;;;;11.60;99.90;;;;;;5023446;28;19921;-63
2023/01/07 11:28:29;;;;;;;;;;;11.60;99.90;;;;;;5025098;28;20272;-63
2023/01/07 11:30:58;;;;;;;;;;;11.70;99.90;;;;;;5024579;28;19960;-63
2023/01/07 11:33:35;;;;;;;;;;;11.70;99.90;;;;;;5022777;28;19991;-61
2023/01/07 11:36:01;;;;;;;;;;;11.70;99.90;;;;;;5026830;28;19917;-62
2023/01/07 11:38:28;;;;;;;;;;;11.70;99.90;;;;;;5031108;28;19924;-63
2023/01/07 11:40:57;;;;;;;;;;;11.70;99.90;;;;;;5023413;28;19925;-62
2023/01/07 11:43:23;;;;;;;;;;;11.70;99.90;;;;;;5029193;28;19918;-63
2023/01/07 11:45:49;;;;;;;;;;;11.80;99.90;;;;;;5022128;28;19927;-62
2023/01/07 11:48:27;;;;;;;;;;;11.80;99.90;;;;;;5024243;28;19952;-62
2023/01/07 11:50:52;;;;;;;;;;;11.80;99.90;;;;;;5020396;28;19913;-63
2023/01/07 11:53:18;;;;;;;;;;;11.70;99.90;;;;;;5020905;28;19943;-63
2023/01/07 11:56:02;;;;;;;;;;;11.70;99.90;;;;;;5029933;28;20306;-62
2023/01/07 11:58:29;;;;;;;;;;;11.80;99.90;;;;;;5030522;28;19941;-62
2023/01/07 12:01:02;;;;;;;;;;;11.90;99.90;;;;;;5024528;28;19913;-61
2023/01/07 12:03:27;;;;;;;;;;;12.10;99.90;;;;;;5024702;28;19920;-62
2023/01/07 12:05:57;;;;;;;;;;;12.20;99.90;;;;;;5020966;28;19917;-62
2023/01/07 12:08:22;;;;;;;;;;;12.40;99.90;;;;;;5026470;28;19914;-63
2023/01/07 12:10:55;;;;;;;;;;;12.50;99.90;;;;;;5019797;28;20270;-63
2023/01/07 12:13:24;;;;;;;;;;;12.50;99.90;;;;;;5029767;28;19971;-63
2023/01/07 12:16:00;;;;;;;;;;;12.50;99.90;;;;;;5024974;28;20568;-62
2023/01/07 12:18:44;;;;;;;;;;;12.50;99.90;;;;;;5028857;28;20427;-62
2023/01/07 12:21:20;;;;;;;;;;;12.50;99.90;;;;;;5030614;28;19927;-62
2023/01/07 12:23:50;;;;;;;;;;;12.50;99.90;;;;;;5021570;28;20009;-63
2023/01/07 12:26:30;;;;;;;;;;;12.60;99.90;;;;;;5014273;28;19959;-65
2023/01/07 12:29:05;;;;;;;;;;;12.60;99.90;;;;;;5025093;28;19941;-64
2023/01/07 12:31:49;;;;;;;;;;;12.60;99.90;;;;;;5021035;28;20433;-64
2023/01/07 12:34:28;;;;;;;;;;;12.60;99.90;;;;;;5027617;28;19980;-64
2023/01/07 12:36:59;;;;;;;;;;;12.50;99.90;;;;;;5023184;28;20728;-64
2023/01/07 12:39:30;;;;;;;;;;;12.40;99.90;;;;;;5026765;28;20008;-64
2023/01/07 12:44:46;;;;;;;;;;;12.40;99.90;;;;;;5864976;22;19984;-65
2023/01/07 12:47:23;;;;;;;;;;;12.40;99.90;;;;;;5044614;28;19967;-64
2023/01/07 12:49:55;;;;;;;;;;;12.60;99.90;;;;;;5053246;28;20346;-66
2023/01/07 12:52:37;;;;;;;;;;;12.90;99.90;;;;;;5031467;28;19935;-66
2023/01/07 12:55:19;;;;;;;;;;;13.20;99.90;;;;;;5057861;28;19947;-66
2023/01/07 12:58:00;;;;;;;;;;;13.20;99.90;;;;;;5060155;28;19954;-66
2023/01/07 13:00:32;;;;;;;;;;;13.00;99.90;;;;;;5024615;28;20302;-64
2023/01/07 13:03:24;;;;;;;;;;;12.80;99.90;;;;;;5038926;28;20388;-65
2023/01/07 13:06:08;;;;;;;;;;;12.80;99.90;;;;;;5063853;28;19912;-66
2023/01/07 13:08:43;;;;;;;;;;;12.80;99.90;;;;;;5057357;28;19924;-66
2023/01/07 13:24:17;;;;;;;;;;;13.20;99.90;;;;;;4986766;28;19953;-64
2023/01/07 13:27:14;;;;;;;;;;;13.20;99.90;;;;;;4990197;28;19965;-64
2023/01/07 13:32:44;;;;;;;;;;;13.00;99.90;;;;;;5036186;28;19921;-66
2023/01/07 13:35:19;;;;;;;;;;;13.00;99.90;;;;;;5048092;28;20057;-66
2023/01/07 13:37:44;;;;;;;;;;;13.00;99.90;;;;;;5047854;28;20301;-65
2023/01/07 13:40:15;;;;;;;;;;;12.90;99.90;;;;;;5044258;28;19914;-65
2023/01/07 13:42:59;;;;;;;;;;;12.80;99.90;;;;;;5040384;28;19908;-66
2023/01/07 13:45:26;;;;;;;;;;;12.80;99.90;;;;;;5038713;28;20010;-66
2023/01/07 13:47:56;;;;;;;;;;;12.70;99.90;;;;;;5044750;28;19917;-66
2023/01/07 13:50:32;;;;;;;;;;;12.70;99.90;;;;;;5041183;28;19919;-66
2023/01/07 13:53:03;;;;;;;;;;;12.80;99.90;;;;;;5044463;28;20258;-66
2023/01/07 13:55:31;;;;;;;;;;;12.70;99.90;;;;;;5045574;28;19959;-66
2023/01/07 13:57:57;;;;;;;;;;;12.60;99.90;;;;;;5045789;28;19962;-66
2023/01/07 14:00:41;;;;;;;;;;;12.60;99.90;;;;;;5041227;28;19913;-65
2023/01/07 14:03:25;;;;;;;;;;;12.60;99.90;;;;;;5050963;28;19923;-65
2023/01/07 14:06:10;;;;;;;;;;;12.50;99.90;;;;;;5041273;28;20006;-63
2023/01/07 14:08:36;;;;;;;;;;;12.50;99.90;;;;;;5045499;28;19921;-67
2023/01/07 14:11:01;;;;;;;;;;;12.50;99.90;;;;;;5045508;28;20590;-65
2023/01/07 14:13:41;;;;;;;;;;;12.50;99.90;;;;;;5045453;28;19920;-65
2023/01/07 14:16:33;;;;;;;;;;;12.40;99.90;;;;;;5045733;28;19917;-65
2023/01/07 14:19:17;;;;;;;;;;;12.40;99.90;;;;;;5040751;28;20118;-65
2023/01/07 14:21:48;;;;;;;;;;;12.50;99.90;;;;;;5048937;28;20514;-65
2023/01/07 14:24:28;;;;;;;;;;;12.40;99.90;;;;;;5048332;28;19999;-66
2023/01/07 14:27:05;;;;;;;;;;;12.40;99.90;;;;;;5044495;28;19919;-65
2023/01/07 14:29:33;;;;;;;;;;;12.40;99.90;;;;;;5043120;28;19913;-65
2023/01/07 14:32:17;;;;;;;;;;;12.40;99.90;;;;;;5045704;28;19913;-65
2023/01/07 14:34:52;;;;;;;;;;;12.30;99.90;;;;;;5040867;28;19950;-65
2023/01/07 14:37:27;;;;;;;;;;;12.20;99.90;;;;;;5042073;28;19924;-65
2023/01/07 14:39:52;;;;;;;;;;;12.10;99.90;;;;;;5042019;28;19919;-65
2023/01/07 14:42:18;;;;;;;;;;;12.10;99.90;;;;;;5039898;28;19917;-66
2023/01/07 14:44:50;;;;;;;;;;;12.00;99.90;;;;;;5043311;28;19917;-66
2023/01/07 14:47:34;;;;;;;;;;;12.10;99.90;;;;;;5047648;28;20408;-65